createdAt,value
2023-04-24T00:02:27.055Z,11.50
2023-04-24T00:04:55.295Z,11.50
2023-04-24T00:07:24.786Z,11.40
2023-04-24T00:09:52.781Z,11.40
2023-04-24T00:12:20.932Z,11.40
2023-04-24T00:14:49.058Z,11.40
2023-04-24T00:17:17.118Z,11.30
2023-04-24T00:19:45.480Z,11.30
2023-04-24T00:22:14.231Z,11.30
2023-04-24T00:24:43.585Z,11.30
2023-04-24T00:27:11.803Z,11.30
2023-04-24T00:29:40.079Z,11.20
2023-04-24T00:32:08.759Z,11.20
2023-04-24T00:34:36.892Z,11.10
2023-04-24T00:37:05.069Z,11.20
2023-04-24T00:39:33.253Z,11.20
2023-04-24T00:42:03.516Z,11.20
2023-04-24T00:44:31.984Z,11.20
2023-04-24T00:47:01.298Z,11.20
2023-04-24T00:49:29.564Z,11.20
2023-04-24T00:51:57.851Z,11.20
2023-04-24T00:54:26.098Z,11.20
2023-04-24T00:56:54.279Z,11.20
2023-04-24T00:59:23.657Z,11.30
2023-04-24T01:01:53.697Z,11.30
2023-04-24T01:04:22.048Z,11.40
2023-04-24T01:06:53.496Z,11.40
2023-04-24T01:09:23.762Z,11.40
2023-04-24T01:11:52.173Z,11.40
2023-04-24T01:14:20.137Z,11.40
2023-04-24T01:16:49.517Z,11.40
2023-04-24T01:19:19.239Z,11.40
2023-04-24T01:21:52.779Z,11.30
2023-04-24T01:24:22.318Z,11.30
2023-04-24T01:26:51.635Z,11.30
2023-04-24T01:29:19.786Z,11.30
2023-04-24T01:31:48.062Z,11.30
2023-04-24T01:34:16.754Z,11.30
2023-04-24T01:36:47.390Z,11.30
2023-04-24T01:39:17.592Z,11.30
2023-04-24T01:41:46.917Z,11.20
2023-04-24T01:44:15.146Z,11.20
2023-04-24T01:46:44.488Z,11.20
2023-04-24T01:49:12.840Z,11.10
2023-04-24T01:51:40.976Z,11.10
2023-04-24T01:54:09.152Z,11.10
2023-04-24T01:56:38.553Z,11.00
2023-04-24T01:59:09.389Z,11.00
2023-04-24T02:01:38.418Z,11.00
2023-04-24T02:04:07.409Z,11.00
2023-04-24T02:06:35.605Z,10.90
2023-04-24T02:09:05.023Z,10.90
2023-04-24T02:11:32.977Z,10.80
2023-04-24T02:14:01.003Z,10.80
2023-04-24T02:16:33.996Z,10.80
2023-04-24T02:19:02.244Z,10.70
2023-04-24T02:21:31.692Z,10.60
2023-04-24T02:23:59.757Z,10.60
2023-04-24T02:26:27.947Z,10.60
2023-04-24T02:28:56.051Z,10.60
2023-04-24T02:31:24.179Z,10.60
2023-04-24T02:33:53.682Z,10.50
2023-04-24T02:36:22.049Z,10.50
2023-04-24T02:38:50.087Z,10.40
2023-04-24T02:41:18.159Z,10.30
2023-04-24T02:43:46.120Z,10.30
2023-04-24T02:46:14.267Z,10.20
2023-04-24T02:48:42.363Z,10.10
2023-04-24T02:51:11.726Z,10.10
2023-04-24T02:53:39.680Z,10.10
2023-04-24T02:56:07.683Z,10.00
2023-04-24T02:58:36.524Z,10.00
2023-04-24T03:01:04.560Z,10.10
2023-04-24T03:03:32.808Z,10.10
2023-04-24T03:06:01.027Z,10.10
2023-04-24T03:08:30.385Z,10.10
2023-04-24T03:10:58.401Z,10.20
2023-04-24T03:13:26.418Z,10.20
2023-04-24T03:15:55.179Z,10.20
2023-04-24T03:18:23.274Z,10.30
2023-04-24T03:20:51.572Z,10.40
2023-04-24T03:23:19.544Z,10.40
2023-04-24T03:25:49.543Z,10.40
2023-04-24T03:28:17.485Z,10.50
2023-04-24T03:30:45.676Z,10.50
2023-04-24T03:33:13.694Z,10.50
2023-04-24T03:35:42.216Z,10.50
2023-04-24T03:38:10.232Z,10.60
2023-04-24T03:40:38.214Z,10.60
2023-04-24T03:43:07.623Z,10.60
2023-04-24T03:45:35.681Z,10.60
2023-04-24T03:48:03.853Z,10.60
2023-04-24T03:50:31.858Z,10.60
2023-04-24T03:52:59.884Z,10.60
2023-04-24T03:55:27.964Z,10.60
2023-04-24T03:57:55.920Z,10.60
2023-04-24T04:00:25.613Z,10.50
2023-04-24T04:02:54.027Z,10.50
2023-04-24T04:05:22.342Z,10.40
2023-04-24T04:07:50.497Z,10.40
2023-04-24T04:10:18.506Z,10.30
2023-04-24T04:12:46.489Z,10.30
2023-04-24T04:15:14.481Z,10.30
2023-04-24T04:17:43.852Z,10.20
2023-04-24T04:20:12.812Z,10.20
2023-04-24T04:22:44.103Z,10.20
2023-04-24T04:25:14.303Z,10.20
2023-04-24T04:27:42.696Z,10.30
2023-04-24T04:30:11.172Z,10.30
2023-04-24T04:32:39.482Z,10.30
2023-04-24T04:35:10.347Z,10.30
2023-04-24T04:37:39.219Z,10.40
2023-04-24T04:40:08.556Z,10.40
2023-04-24T04:42:36.538Z,10.50
2023-04-24T04:45:05.165Z,10.50
2023-04-24T04:47:33.628Z,10.40
2023-04-24T04:50:01.722Z,10.50
2023-04-24T04:52:31.106Z,10.50
2023-04-24T04:54:59.327Z,10.50
2023-04-24T04:57:27.470Z,10.40
2023-04-24T04:59:55.944Z,10.30
2023-04-24T05:02:24.155Z,10.20
2023-04-24T05:04:52.411Z,10.20
2023-04-24T05:07:20.674Z,10.10
2023-04-24T05:09:50.015Z,10.00
2023-04-24T05:12:17.971Z,10.00
2023-04-24T05:14:45.958Z,9.90
2023-04-24T05:17:14.009Z,9.90
2023-04-24T05:19:42.465Z,9.90
2023-04-24T05:22:11.423Z,9.90
2023-04-24T05:24:39.915Z,9.90
2023-04-24T05:27:09.323Z,9.90
2023-04-24T05:29:37.307Z,9.90
2023-04-24T05:32:05.449Z,9.90
2023-04-24T05:34:33.676Z,9.90
2023-04-24T05:37:01.659Z,9.90
2023-04-24T05:39:29.797Z,9.90
2023-04-24T05:41:59.052Z,9.90
2023-04-24T05:44:28.545Z,9.90
2023-04-24T05:46:56.927Z,9.90
2023-04-24T05:49:25.476Z,9.90
2023-04-24T05:51:53.440Z,9.90
2023-04-24T05:54:21.442Z,10.00
2023-04-24T05:56:49.457Z,10.00
2023-04-24T05:59:17.443Z,10.00
2023-04-24T06:01:47.127Z,10.00
2023-04-24T06:04:15.921Z,10.10
2023-04-24T06:06:44.153Z,10.10
2023-04-24T06:09:12.996Z,10.10
2023-04-24T06:11:41.019Z,10.10
2023-04-24T06:14:09.092Z,10.10
2023-04-24T06:16:37.298Z,10.20
2023-04-24T06:19:06.776Z,10.20
2023-04-24T06:21:34.788Z,10.20
2023-04-24T06:24:03.203Z,10.20
2023-04-24T06:26:31.311Z,10.20
2023-04-24T06:29:01.152Z,10.30
2023-04-24T06:31:29.159Z,10.30
2023-04-24T06:33:57.238Z,10.30
2023-04-24T06:36:26.681Z,10.30
2023-04-24T06:38:54.825Z,10.30
2023-04-24T06:41:22.862Z,10.20
2023-04-24T06:43:51.123Z,10.20
2023-04-24T06:46:19.355Z,10.20
2023-04-24T06:48:47.649Z,10.20
2023-04-24T06:51:15.564Z,10.20
2023-04-24T06:53:44.888Z,10.20
2023-04-24T06:56:12.948Z,10.20
2023-04-24T06:58:41.465Z,10.30
2023-04-24T07:01:09.544Z,10.30
2023-04-24T07:03:37.705Z,10.30
2023-04-24T07:06:06.738Z,10.30
2023-04-24T07:08:34.902Z,10.30
2023-04-24T07:11:05.138Z,10.30
2023-04-24T07:13:33.147Z,10.30
2023-04-24T07:16:01.243Z,10.30
2023-04-24T07:18:29.290Z,10.30
2023-04-24T07:20:57.487Z,10.30
2023-04-24T07:23:25.497Z,10.30
2023-04-24T07:25:53.542Z,10.30
2023-04-24T07:28:22.872Z,10.30
2023-04-24T07:30:51.040Z,10.30
2023-04-24T07:33:19.103Z,10.40
2023-04-24T07:35:47.077Z,10.40
2023-04-24T07:38:15.222Z,10.40
2023-04-24T07:40:43.995Z,10.50
2023-04-24T07:43:11.972Z,10.50
2023-04-24T07:45:41.657Z,10.60
2023-04-24T07:48:10.042Z,10.70
2023-04-24T07:50:38.199Z,10.80
2023-04-24T07:53:06.413Z,10.80
2023-04-24T07:55:34.478Z,10.80
2023-04-24T07:58:02.568Z,10.90
2023-04-24T08:00:30.610Z,10.80
2023-04-24T08:03:00.134Z,10.70
2023-04-24T08:05:29.698Z,10.70
2023-04-24T08:07:57.893Z,10.60
2023-04-24T08:10:26.787Z,10.70
2023-04-24T08:12:56.377Z,10.70
2023-04-24T08:15:24.402Z,10.70
2023-04-24T08:17:52.462Z,10.60
2023-04-24T08:20:21.881Z,10.60
2023-04-24T08:22:49.913Z,10.60
2023-04-24T08:25:18.950Z,10.60
2023-04-24T08:27:46.986Z,10.60
2023-04-24T08:30:15.212Z,10.50
2023-04-24T08:32:43.428Z,10.50
2023-04-24T08:35:11.792Z,10.50
2023-04-24T08:37:41.358Z,10.50
2023-04-24T08:40:16.471Z,10.60
2023-04-24T08:42:45.652Z,10.80
2023-04-24T08:45:14.726Z,10.80
2023-04-24T08:47:43.758Z,11.10
2023-04-24T08:50:13.526Z,11.40
2023-04-24T08:52:44.547Z,11.50
2023-04-24T08:55:12.653Z,11.60
2023-04-24T08:57:41.650Z,11.40
2023-04-24T09:00:12.213Z,11.30
2023-04-24T09:02:44.462Z,11.20
2023-04-24T09:05:12.694Z,11.10
2023-04-24T09:07:43.724Z,11.00
2023-04-24T09:10:12.639Z,10.90
2023-04-24T09:12:40.689Z,10.80
2023-04-24T09:15:10.169Z,10.60
2023-04-24T09:17:39.104Z,10.60
2023-04-24T09:20:08.332Z,10.60
2023-04-24T09:22:36.855Z,10.60
2023-04-24T09:25:08.256Z,10.50
2023-04-24T09:27:36.957Z,10.60
2023-04-24T09:30:06.311Z,10.70
2023-04-24T09:32:34.441Z,10.70
2023-04-24T09:35:10.749Z,10.70
2023-04-24T09:37:39.762Z,10.70
2023-04-24T09:40:14.550Z,10.70
2023-04-24T09:42:45.125Z,10.60
2023-04-24T09:45:15.582Z,10.60
2023-04-24T09:47:44.354Z,10.60
2023-04-24T09:50:17.090Z,10.60
2023-04-24T09:52:47.979Z,10.50
2023-04-24T09:55:21.039Z,10.60
2023-04-24T09:57:53.572Z,10.50
2023-04-24T10:00:24.581Z,10.50
2023-04-24T10:02:54.315Z,10.40
2023-04-24T10:05:25.986Z,10.30
2023-04-24T10:07:57.897Z,10.40
2023-04-24T10:10:27.874Z,10.30
2023-04-24T10:12:56.809Z,10.30
2023-04-24T10:15:25.726Z,10.30
2023-04-24T10:17:54.377Z,10.30
2023-04-24T10:20:23.976Z,10.20
2023-04-24T10:22:53.679Z,10.10
2023-04-24T10:25:23.714Z,10.10
2023-04-24T10:27:54.607Z,10.20
2023-04-24T10:30:22.750Z,10.50
2023-04-24T10:32:50.913Z,10.80
2023-04-24T10:35:23.173Z,10.90
2023-04-24T10:37:56.117Z,10.90
2023-04-24T10:40:29.245Z,10.80
2023-04-24T10:42:59.281Z,10.80
2023-04-24T10:45:27.444Z,10.80
2023-04-24T10:47:59.510Z,10.60
2023-04-24T10:50:32.544Z,10.30
2023-04-24T10:53:15.033Z,10.10
2023-04-24T10:55:48.491Z,10.10
2023-04-24T10:58:18.822Z,10.20
2023-04-24T11:00:57.171Z,10.10
2023-04-24T11:03:30.372Z,10.00
2023-04-24T11:06:00.865Z,9.90
2023-04-24T11:08:34.626Z,9.90
2023-04-24T11:11:06.451Z,9.90
2023-04-24T11:14:10.652Z,9.90
2023-04-24T11:16:45.357Z,9.80
2023-04-24T11:19:24.578Z,9.80
2023-04-24T11:21:59.776Z,9.80
2023-04-24T11:24:32.864Z,9.80
2023-04-24T11:27:08.861Z,9.70
2023-04-24T11:29:46.242Z,9.70
2023-04-24T11:32:19.707Z,9.80
2023-04-24T11:34:49.628Z,9.90
2023-04-24T11:37:17.929Z,9.80
2023-04-24T11:39:46.138Z,9.70
2023-04-24T11:42:17.156Z,9.70
2023-04-24T11:44:55.215Z,9.60
2023-04-24T11:47:30.662Z,9.50
2023-04-24T11:49:59.147Z,9.30
2023-04-24T11:52:28.446Z,9.20
2023-04-24T11:54:56.863Z,9.10
2023-04-24T11:57:28.897Z,9.00
2023-04-24T11:59:58.288Z,8.90
2023-04-24T12:02:28.870Z,8.90
2023-04-24T12:04:57.475Z,8.80
2023-04-24T12:07:26.473Z,8.80
2023-04-24T12:09:59.256Z,8.80
2023-04-24T12:12:29.041Z,8.80
2023-04-24T12:15:00.419Z,8.70
2023-04-24T12:17:31.255Z,8.70
2023-04-24T12:20:03.555Z,8.70
2023-04-24T12:22:46.606Z,8.70
2023-04-24T12:25:15.687Z,8.60
2023-04-24T12:27:43.881Z,8.60
2023-04-24T12:30:15.955Z,8.60
2023-04-24T12:32:45.276Z,8.60
2023-04-24T12:35:13.443Z,8.60
2023-04-24T12:37:47.225Z,8.60
2023-04-24T12:40:16.542Z,8.60
2023-04-24T12:42:46.339Z,8.70
2023-04-24T12:45:16.557Z,8.70
2023-04-24T12:47:45.830Z,8.80
2023-04-24T12:50:15.592Z,8.80
2023-04-24T12:52:44.211Z,8.80
2023-04-24T12:55:13.086Z,8.90
2023-04-24T12:57:41.958Z,8.80
2023-04-24T13:00:11.642Z,8.80
2023-04-24T13:02:41.366Z,8.90
2023-04-24T13:05:12.590Z,8.90
2023-04-24T13:07:40.683Z,8.90
2023-04-24T13:10:10.061Z,9.00
2023-04-24T13:12:38.482Z,9.00
2023-04-24T13:15:07.780Z,9.00
2023-04-24T13:17:35.815Z,9.00
2023-04-24T13:20:05.860Z,8.90
2023-04-24T13:22:33.895Z,9.00
2023-04-24T13:25:02.341Z,8.90
2023-04-24T13:27:30.446Z,8.90
2023-04-24T13:29:58.466Z,8.90
2023-04-24T13:32:26.548Z,9.00
2023-04-24T13:34:54.598Z,8.90
2023-04-24T13:37:24.183Z,8.90
2023-04-24T13:39:52.590Z,8.80
2023-04-24T13:42:21.031Z,8.70
2023-04-24T13:44:49.297Z,8.70
2023-04-24T13:47:17.262Z,8.70
2023-04-24T13:49:45.332Z,8.60
2023-04-24T13:52:14.873Z,8.70
2023-04-24T13:54:44.272Z,8.60
2023-04-24T13:57:12.901Z,8.70
2023-04-24T13:59:41.003Z,8.70
2023-04-24T14:02:09.458Z,8.80
2023-04-24T14:04:37.783Z,8.80
2023-04-24T14:07:06.133Z,8.90
2023-04-24T14:09:34.146Z,8.90
2023-04-24T14:12:04.604Z,9.00
2023-04-24T14:14:32.696Z,9.10
2023-04-24T14:17:00.824Z,9.20
2023-04-24T14:19:29.089Z,9.40
2023-04-24T14:21:59.361Z,9.60
2023-04-24T14:24:27.334Z,9.70
2023-04-24T14:26:55.386Z,9.70
2023-04-24T14:29:26.862Z,9.70
2023-04-24T14:31:55.176Z,9.70
2023-04-24T14:34:23.276Z,9.70
2023-04-24T14:36:51.375Z,9.60
2023-04-24T14:39:19.709Z,9.50
2023-04-24T14:41:47.984Z,9.50
2023-04-24T14:44:16.010Z,9.50
2023-04-24T14:46:45.852Z,9.50
2023-04-24T14:49:13.956Z,9.40
2023-04-24T14:51:42.310Z,9.40
2023-04-24T14:54:10.314Z,9.40
2023-04-24T14:56:40.500Z,9.40
2023-04-24T14:59:09.549Z,9.30
2023-04-24T15:01:37.901Z,9.30
2023-04-24T15:04:10.365Z,9.20
2023-04-24T15:06:39.585Z,9.20
2023-04-24T15:09:09.282Z,9.20
2023-04-24T15:11:37.470Z,9.20
2023-04-24T15:14:05.920Z,9.30
2023-04-24T15:16:34.225Z,9.30
2023-04-24T15:19:02.590Z,9.40
2023-04-24T15:21:32.375Z,9.40
2023-04-24T15:24:09.404Z,9.40
2023-04-24T15:26:40.947Z,9.40
2023-04-24T15:29:09.181Z,9.40
2023-04-24T15:31:40.668Z,9.40
2023-04-24T15:34:14.556Z,9.30
2023-04-24T15:36:45.037Z,9.30
2023-04-24T15:39:13.193Z,9.30
2023-04-24T15:41:41.351Z,9.20
2023-04-24T15:44:09.531Z,9.20
2023-04-24T15:46:37.668Z,9.20
2023-04-24T15:49:05.888Z,9.20
2023-04-24T15:51:34.972Z,9.20
2023-04-24T15:54:04.530Z,9.20
2023-04-24T15:56:32.632Z,9.10
2023-04-24T15:59:00.870Z,9.20
2023-04-24T16:01:29.008Z,9.10
2023-04-24T16:03:57.296Z,9.10
2023-04-24T16:06:25.451Z,9.20
2023-04-24T16:08:53.409Z,9.20
2023-04-24T16:11:22.827Z,9.20
2023-04-24T16:13:50.833Z,9.30
2023-04-24T16:16:18.998Z,9.30
2023-04-24T16:18:48.125Z,9.30
2023-04-24T16:21:16.687Z,9.30
2023-04-24T16:23:44.664Z,9.30
2023-04-24T16:26:12.853Z,9.20
2023-04-24T16:28:43.531Z,9.10
2023-04-24T16:31:11.614Z,9.10
2023-04-24T16:33:39.850Z,9.10
2023-04-24T16:36:08.893Z,9.10
2023-04-24T16:38:40.127Z,9.00
2023-04-24T16:41:10.663Z,8.90
2023-04-24T16:43:38.834Z,8.90
2023-04-24T16:46:09.527Z,8.90
2023-04-24T16:48:37.552Z,8.80
2023-04-24T16:51:06.258Z,8.80
2023-04-24T16:53:35.324Z,8.80
2023-04-24T16:56:03.394Z,8.80
2023-04-24T16:58:31.960Z,8.70
2023-04-24T17:01:00.101Z,8.70
2023-04-24T17:03:29.810Z,8.70
2023-04-24T17:05:58.082Z,8.70
2023-04-24T17:08:26.154Z,8.70
2023-04-24T17:10:54.208Z,8.80
2023-04-24T17:13:22.380Z,8.80
2023-04-24T17:15:50.534Z,8.80
2023-04-24T17:18:19.025Z,8.90
2023-04-24T17:20:48.610Z,8.90
2023-04-24T17:23:16.666Z,9.00
2023-04-24T17:25:44.710Z,9.00
2023-04-24T17:28:26.104Z,8.90
2023-04-24T17:30:57.942Z,8.80
2023-04-24T17:33:26.285Z,8.80
2023-04-24T17:35:57.246Z,8.70
2023-04-24T17:38:25.752Z,8.70
2023-04-24T17:40:55.139Z,8.70
2023-04-24T17:43:24.182Z,8.60
2023-04-24T17:45:53.451Z,8.60
2023-04-24T17:48:22.288Z,8.60
2023-04-24T17:50:51.707Z,8.50
2023-04-24T17:53:22.142Z,8.50
2023-04-24T17:55:50.383Z,8.50
2023-04-24T17:58:18.991Z,8.50
2023-04-24T18:00:47.163Z,8.50
2023-04-24T18:03:15.689Z,8.60
2023-04-24T18:05:43.945Z,8.60
2023-04-24T18:08:11.996Z,8.60
2023-04-24T18:10:44.379Z,8.60
2023-04-24T18:13:13.463Z,8.60
2023-04-24T18:15:43.450Z,8.60
2023-04-24T18:18:12.461Z,8.50
2023-04-24T18:20:41.180Z,8.40
2023-04-24T18:23:09.188Z,8.40
2023-04-24T18:25:37.208Z,8.40
2023-04-24T18:28:06.566Z,8.30
2023-04-24T18:30:34.729Z,8.30
2023-04-24T18:33:02.999Z,8.30
2023-04-24T18:35:31.206Z,8.20
2023-04-24T18:37:59.290Z,8.20
2023-04-24T18:40:27.582Z,8.20
2023-04-24T18:42:57.059Z,8.20
2023-04-24T18:45:26.549Z,8.10
2023-04-24T18:47:54.722Z,8.10
2023-04-24T18:50:22.856Z,8.10
2023-04-24T18:52:51.328Z,8.10
2023-04-24T18:55:19.667Z,8.00
2023-04-24T18:57:47.784Z,8.00
2023-04-24T19:00:16.288Z,8.00
2023-04-24T19:02:45.730Z,8.00
2023-04-24T19:05:13.758Z,8.00
2023-04-24T19:07:42.269Z,8.00
2023-04-24T19:10:11.530Z,8.00
2023-04-24T19:12:39.612Z,8.00
2023-04-24T19:15:11.530Z,8.00
2023-04-24T19:17:39.834Z,7.90
2023-04-24T19:20:10.114Z,8.00
2023-04-24T19:22:38.240Z,8.00
2023-04-24T19:25:07.212Z,7.90
2023-04-24T19:27:35.288Z,7.90
2023-04-24T19:30:03.432Z,7.90
2023-04-24T19:32:31.810Z,7.80
2023-04-24T19:34:59.895Z,7.80
2023-04-24T19:37:30.158Z,7.70
2023-04-24T19:39:58.252Z,7.70
2023-04-24T19:42:39.832Z,7.70
2023-04-24T19:45:12.344Z,7.70
2023-04-24T19:47:40.794Z,7.70
2023-04-24T19:50:09.527Z,7.70
2023-04-24T19:52:38.874Z,7.70
2023-04-24T19:55:08.111Z,7.70
2023-04-24T19:57:36.482Z,7.80
2023-04-24T20:00:05.223Z,7.80
2023-04-24T20:02:33.683Z,7.80
2023-04-24T20:05:01.926Z,7.90
2023-04-24T20:07:30.065Z,7.90
2023-04-24T20:10:01.468Z,7.90
2023-04-24T20:12:29.584Z,7.90
2023-04-24T20:14:57.547Z,7.90
2023-04-24T20:17:25.584Z,7.80
2023-04-24T20:19:53.641Z,7.80
2023-04-24T20:22:21.836Z,7.80
2023-04-24T20:24:50.430Z,7.80
2023-04-24T20:27:20.882Z,7.80
2023-04-24T20:29:48.928Z,7.70
2023-04-24T20:32:16.900Z,7.70
2023-04-24T20:34:45.023Z,7.70
2023-04-24T20:37:13.193Z,7.70
2023-04-24T20:39:41.337Z,7.70
2023-04-24T20:42:10.873Z,7.70
2023-04-24T20:44:41.521Z,7.60
2023-04-24T20:47:09.757Z,7.60
2023-04-24T20:49:38.243Z,7.50
2023-04-24T20:52:06.580Z,7.50
2023-04-24T20:54:34.684Z,7.50
2023-04-24T20:57:02.961Z,7.50
2023-04-24T20:59:31.052Z,7.50
2023-04-24T21:02:00.505Z,7.50
2023-04-24T21:04:28.821Z,7.50
2023-04-24T21:06:56.838Z,7.50
2023-04-24T21:09:24.951Z,7.50
2023-04-24T21:11:53.026Z,7.50
2023-04-24T21:14:21.098Z,7.40
2023-04-24T21:16:49.191Z,7.50
2023-04-24T21:19:18.690Z,7.40
2023-04-24T21:21:46.713Z,7.40
2023-04-24T21:24:14.972Z,7.40
2023-04-24T21:26:43.020Z,7.30
2023-04-24T21:29:11.456Z,7.30
2023-04-24T21:31:39.593Z,7.30
2023-04-24T21:34:07.753Z,7.20
2023-04-24T21:36:37.344Z,7.20
2023-04-24T21:39:05.593Z,7.10
2023-04-24T21:41:33.696Z,7.10
2023-04-24T21:44:01.819Z,7.10
2023-04-24T21:46:30.039Z,7.00
2023-04-24T21:48:58.192Z,7.00
2023-04-24T21:51:26.957Z,7.00
2023-04-24T21:53:56.396Z,7.00
2023-04-24T21:56:24.584Z,7.00
2023-04-24T21:58:53.815Z,7.00
2023-04-24T22:01:21.994Z,7.00
2023-04-24T22:03:50.365Z,7.00
2023-04-24T22:06:18.673Z,6.90
2023-04-24T22:08:47.748Z,6.90
2023-04-24T22:11:26.925Z,6.90
2023-04-24T22:13:55.228Z,6.90
2023-04-24T22:16:24.781Z,6.80
2023-04-24T22:18:55.201Z,6.80
2023-04-24T22:21:23.897Z,6.80
2023-04-24T22:23:52.455Z,6.70
2023-04-24T22:26:22.264Z,6.80
2023-04-24T22:28:50.332Z,6.70
2023-04-24T22:31:18.497Z,6.80
2023-04-24T22:33:47.760Z,6.80
2023-04-24T22:36:16.179Z,6.80
2023-04-24T22:38:44.337Z,6.80
2023-04-24T22:41:12.533Z,6.80
2023-04-24T22:43:41.921Z,6.70
2023-04-24T22:46:09.917Z,6.70
2023-04-24T22:48:38.057Z,6.80
2023-04-24T22:51:06.602Z,6.80
2023-04-24T22:53:36.134Z,6.80
2023-04-24T22:56:04.482Z,6.80
2023-04-24T22:58:33.026Z,6.70
2023-04-24T23:01:02.524Z,6.70
2023-04-24T23:03:31.585Z,6.80
2023-04-24T23:06:01.031Z,6.70
2023-04-24T23:08:30.702Z,6.70
2023-04-24T23:11:00.763Z,6.70
2023-04-24T23:13:28.922Z,6.70
2023-04-24T23:15:57.370Z,6.70
2023-04-24T23:18:27.067Z,6.70
2023-04-24T23:20:55.550Z,6.70
2023-04-24T23:23:24.134Z,6.70
2023-04-24T23:25:52.269Z,6.70
2023-04-24T23:28:20.684Z,6.70
2023-04-24T23:30:48.741Z,6.70
2023-04-24T23:33:16.733Z,6.70
2023-04-24T23:35:46.223Z,6.70
2023-04-24T23:38:14.188Z,6.70
2023-04-24T23:40:42.293Z,6.70
2023-04-24T23:43:10.306Z,6.70
2023-04-24T23:45:38.316Z,6.70
2023-04-24T23:48:06.551Z,6.70
2023-04-24T23:50:34.932Z,6.70
2023-04-24T23:53:04.538Z,6.70
2023-04-24T23:55:32.588Z,6.70
2023-04-24T23:58:00.822Z,6.70
